Cozumel, Mexico

2:08 AM EST on February 12, 2016 (GMT -0500)
APRSWXNET | | Change Station
CLOSE
Current Station
Personal Weather Station
Location: Cozumel,
Elevation: 36 ft
Nearby Weather Stations

Elev 36 ft 20.51 °N, 86.93 °W | Updated 26 minutes ago

Mostly Cloudy
Mostly Cloudy
67 °F
Feels Like 67 °F
N
4
Wind Variable Wind from East
Gusts 8.0 mph

Today
High -- | Low -- °F
--% Chance of Precip.
Yesterday
High -- | Low -- °F
Precip. -- in
Pressure 30.20 in
Visibility 7.0 miles
Clouds Mostly Cloudy 8000 ft
Dew Point 61 °F
Humidity 81%
Rainfall in
Snow Depth Not available.
7:19 AM 6:44 PM
Waxing Crescent, 18% visible
METAR MMUN 120644Z 00000KT 7SM BKN080 18/14 A3020 RMK 8/030
Pressure 30.20 in
Visibility 7.0 miles
Clouds Mostly Cloudy 8000 ft
Dew Point 61 °F
Humidity 81%
Rainfall in
Snow Depth Not available.
7:19 AM 6:44 PM
Waxing Crescent, 18% visible
METAR MMUN 120644Z 00000KT 7SM BKN080 18/14 A3020 RMK 8/030

10-Day Weather Forecast

No radar image for this location.
×

Almanac

Astronomy

Feb. 12, 2016 Rise Set
Actual Time
Civil Twilight
Nautical Twilight
Astronomical Twilight
Moon
Length of Visible Light
Length of Day
Tomorrow will be .
, % of the Moon is Illuminated

Today's Extremes

Country Highs Country Lows

Community

WunderPhotos

Upload Photos

1,892,278 photos uploaded!

WunderBlog® & News

Nearby

Air Quality

  Air Quality AQ Index Pollutant
Not available.

Snow Depth

Station Depth Elevation

Earthquake Activity

City Distance Mag. Time & Date
Minimum magnitude displayed is 2.5.

Coastal Water Temperatures

Place Temperature

Stations

Nearby Weather Stations

Station Location Temp. Windchill Dew Point Humidity Wind Precip. Elev Updated Type